sensor_id;sensor_type;location;lat;lon;timestamp;P1;durP1;ratioP1;P2;durP2;ratioP2
2854;SDS011;1435;49.472;10.940;2024-01-10T00:02:15;13.03;;;6.80;;
2854;SDS011;1435;49.472;10.940;2024-01-10T00:07:17;10.80;;;8.27;;
2854;SDS011;1435;49.472;10.940;2024-01-10T00:12:20;14.20;;;8.10;;
2854;SDS011;1435;49.472;10.940;2024-01-10T00:17:22;12.23;;;8.10;;
2854;SDS011;1435;49.472;10.940;2024-01-10T00:22:23;9.20;;;6.90;;
2854;SDS011;1435;49.472;10.940;2024-01-10T00:27:26;11.33;;;7.30;;
2854;SDS011;1435;49.472;10.940;2024-01-10T00:32:28;9.60;;;6.70;;
2854;SDS011;1435;49.472;10.940;2024-01-10T00:37:29;12.87;;;7.87;;
2854;SDS011;1435;49.472;10.940;2024-01-10T00:42:32;14.73;;;6.90;;
2854;SDS011;1435;49.472;10.940;2024-01-10T00:47:34;9.93;;;6.30;;
2854;SDS011;1435;49.472;10.940;2024-01-10T00:52:36;13.57;;;7.07;;
2854;SDS011;1435;49.472;10.940;2024-01-10T00:57:39;10.27;;;5.87;;
2854;SDS011;1435;49.472;10.940;2024-01-10T01:02:40;9.70;;;6.60;;
2854;SDS011;1435;49.472;10.940;2024-01-10T01:07:42;8.83;;;6.60;;
2854;SDS011;1435;49.472;10.940;2024-01-10T01:12:45;9.20;;;5.30;;
2854;SDS011;1435;49.472;10.940;2024-01-10T01:17:46;8.30;;;5.63;;
2854;SDS011;1435;49.472;10.940;2024-01-10T01:22:48;14.87;;;7.03;;
2854;SDS011;1435;49.472;10.940;2024-01-10T01:27:51;11.63;;;7.40;;
2854;SDS011;1435;49.472;10.940;2024-01-10T01:32:53;12.47;;;7.70;;
2854;SDS011;1435;49.472;10.940;2024-01-10T01:37:54;7.70;;;5.73;;
2854;SDS011;1435;49.472;10.940;2024-01-10T01:42:57;8.37;;;5.93;;
2854;SDS011;1435;49.472;10.940;2024-01-10T01:47:59;7.83;;;6.90;;
2854;SDS011;1435;49.472;10.940;2024-01-10T01:53:01;9.23;;;6.20;;
2854;SDS011;1435;49.472;10.940;2024-01-10T01:58:04;10.13;;;6.53;;
2854;SDS011;1435;49.472;10.940;2024-01-10T02:03:07;8.40;;;5.50;;
2854;SDS011;1435;49.472;10.940;2024-01-10T02:08:10;10.10;;;5.27;;
2854;SDS011;1435;49.472;10.940;2024-01-10T02:13:13;7.90;;;5.63;;
2854;SDS011;1435;49.472;10.940;2024-01-10T02:18:15;8.47;;;5.57;;
2854;SDS011;1435;49.472;10.940;2024-01-10T02:23:17;7.40;;;6.70;;
2854;SDS011;1435;49.472;10.940;2024-01-10T02:28:20;9.33;;;6.00;;
2854;SDS011;1435;49.472;10.940;2024-01-10T02:33:23;7.17;;;5.40;;
2854;SDS011;1435;49.472;10.940;2024-01-10T02:38:24;9.33;;;5.83;;
2854;SDS011;1435;49.472;10.940;2024-01-10T02:43:28;9.93;;;5.90;;
2854;SDS011;1435;49.472;10.940;2024-01-10T02:48:30;9.47;;;6.27;;
2854;SDS011;1435;49.472;10.940;2024-01-10T02:53:31;7.90;;;5.40;;
2854;SDS011;1435;49.472;10.940;2024-01-10T02:58:35;12.90;;;6.30;;
2854;SDS011;1435;49.472;10.940;2024-01-10T03:03:36;7.63;;;6.80;;
2854;SDS011;1435;49.472;10.940;2024-01-10T03:08:38;9.73;;;5.77;;
2854;SDS011;1435;49.472;10.940;2024-01-10T03:13:43;10.37;;;6.30;;
2854;SDS011;1435;49.472;10.940;2024-01-10T03:18:46;11.17;;;6.40;;
2854;SDS011;1435;49.472;10.940;2024-01-10T03:23:48;9.43;;;6.30;;
2854;SDS011;1435;49.472;10.940;2024-01-10T03:28:51;9.50;;;6.00;;
2854;SDS011;1435;49.472;10.940;2024-01-10T03:33:53;10.57;;;6.23;;
2854;SDS011;1435;49.472;10.940;2024-01-10T03:38:54;8.80;;;5.50;;
2854;SDS011;1435;49.472;10.940;2024-01-10T03:43:58;12.40;;;5.87;;
2854;SDS011;1435;49.472;10.940;2024-01-10T03:48:59;8.47;;;6.23;;
2854;SDS011;1435;49.472;10.940;2024-01-10T03:54:01;10.23;;;6.57;;
2854;SDS011;1435;49.472;10.940;2024-01-10T03:59:04;9.33;;;7.00;;
2854;SDS011;1435;49.472;10.940;2024-01-10T04:04:06;10.73;;;7.10;;
2854;SDS011;1435;49.472;10.940;2024-01-10T04:09:07;11.20;;;6.90;;
2854;SDS011;1435;49.472;10.940;2024-01-10T04:14:11;9.27;;;7.17;;
2854;SDS011;1435;49.472;10.940;2024-01-10T04:19:13;12.43;;;6.63;;
2854;SDS011;1435;49.472;10.940;2024-01-10T04:24:14;12.23;;;6.73;;
2854;SDS011;1435;49.472;10.940;2024-01-10T04:29:17;15.27;;;7.37;;
2854;SDS011;1435;49.472;10.940;2024-01-10T04:34:19;14.07;;;7.70;;
2854;SDS011;1435;49.472;10.940;2024-01-10T04:39:22;11.60;;;6.17;;
2854;SDS011;1435;49.472;10.940;2024-01-10T04:44:25;10.43;;;7.10;;
2854;SDS011;1435;49.472;10.940;2024-01-10T04:49:27;13.20;;;7.40;;
2854;SDS011;1435;49.472;10.940;2024-01-10T04:54:29;13.47;;;6.90;;
2854;SDS011;1435;49.472;10.940;2024-01-10T04:59:32;19.23;;;7.70;;
2854;SDS011;1435;49.472;10.940;2024-01-10T05:04:33;10.37;;;6.60;;
2854;SDS011;1435;49.472;10.940;2024-01-10T05:09:36;11.97;;;7.67;;
2854;SDS011;1435;49.472;10.940;2024-01-10T05:14:39;8.77;;;6.70;;
2854;SDS011;1435;49.472;10.940;2024-01-10T05:19:40;10.60;;;8.40;;
2854;SDS011;1435;49.472;10.940;2024-01-10T05:24:42;10.40;;;6.90;;
2854;SDS011;1435;49.472;10.940;2024-01-10T05:29:46;8.80;;;6.67;;
2854;SDS011;1435;49.472;10.940;2024-01-10T05:34:48;8.20;;;6.60;;
2854;SDS011;1435;49.472;10.940;2024-01-10T05:39:50;8.73;;;5.97;;
2854;SDS011;1435;49.472;10.940;2024-01-10T05:44:53;12.83;;;8.03;;
2854;SDS011;1435;49.472;10.940;2024-01-10T05:49:55;9.37;;;6.30;;
2854;SDS011;1435;49.472;10.940;2024-01-10T05:54:56;11.77;;;7.20;;
2854;SDS011;1435;49.472;10.940;2024-01-10T06:00:00;7.90;;;6.73;;
2854;SDS011;1435;49.472;10.940;2024-01-10T06:05:03;9.40;;;6.60;;
2854;SDS011;1435;49.472;10.940;2024-01-10T06:10:06;11.80;;;7.07;;
2854;SDS011;1435;49.472;10.940;2024-01-10T06:15:11;12.00;;;7.60;;
2854;SDS011;1435;49.472;10.940;2024-01-10T06:20:13;10.63;;;7.13;;
2854;SDS011;1435;49.472;10.940;2024-01-10T06:25:14;14.00;;;7.27;;
2854;SDS011;1435;49.472;10.940;2024-01-10T06:30:17;9.87;;;7.57;;
2854;SDS011;1435;49.472;10.940;2024-01-10T06:35:19;15.13;;;7.80;;
2854;SDS011;1435;49.472;10.940;2024-01-10T06:40:21;12.13;;;7.20;;
2854;SDS011;1435;49.472;10.940;2024-01-10T06:45:24;14.87;;;8.40;;
2854;SDS011;1435;49.472;10.940;2024-01-10T06:50:25;14.60;;;8.23;;
2854;SDS011;1435;49.472;10.940;2024-01-10T06:55:27;13.23;;;8.67;;
2854;SDS011;1435;49.472;10.940;2024-01-10T07:00:30;14.07;;;8.67;;
2854;SDS011;1435;49.472;10.940;2024-01-10T07:05:32;10.83;;;7.60;;
2854;SDS011;1435;49.472;10.940;2024-01-10T07:15:13;16.07;;;7.87;;
2854;SDS011;1435;49.472;10.940;2024-01-10T07:20:14;11.33;;;7.03;;
2854;SDS011;1435;49.472;10.940;2024-01-10T07:25:16;10.20;;;7.63;;
2854;SDS011;1435;49.472;10.940;2024-01-10T07:30:19;9.57;;;6.43;;
2854;SDS011;1435;49.472;10.940;2024-01-10T07:35:21;12.97;;;7.37;;
2854;SDS011;1435;49.472;10.940;2024-01-10T07:40:23;14.23;;;7.03;;
2854;SDS011;1435;49.472;10.940;2024-01-10T07:45:26;10.87;;;6.37;;
2854;SDS011;1435;49.472;10.940;2024-01-10T07:50:27;13.17;;;7.90;;
2854;SDS011;1435;49.472;10.940;2024-01-10T07:55:29;11.87;;;6.37;;
2854;SDS011;1435;49.472;10.940;2024-01-10T08:00:32;7.20;;;6.50;;
2854;SDS011;1435;49.472;10.940;2024-01-10T08:05:34;8.70;;;6.27;;
2854;SDS011;1435;49.472;10.940;2024-01-10T08:10:35;10.37;;;7.60;;
2854;SDS011;1435;49.472;10.940;2024-01-10T08:15:38;12.30;;;6.87;;
2854;SDS011;1435;49.472;10.940;2024-01-10T08:20:41;14.67;;;7.33;;
2854;SDS011;1435;49.472;10.940;2024-01-10T08:25:44;12.83;;;8.77;;
2854;SDS011;1435;49.472;10.940;2024-01-10T08:30:47;11.00;;;8.47;;
2854;SDS011;1435;49.472;10.940;2024-01-10T08:35:48;15.80;;;8.17;;
2854;SDS011;1435;49.472;10.940;2024-01-10T08:40:50;12.63;;;7.90;;
2854;SDS011;1435;49.472;10.940;2024-01-10T08:45:53;14.90;;;8.87;;
2854;SDS011;1435;49.472;10.940;2024-01-10T08:50:55;12.80;;;8.70;;
2854;SDS011;1435;49.472;10.940;2024-01-10T08:55:57;14.40;;;9.10;;
2854;SDS011;1435;49.472;10.940;2024-01-10T09:01:00;14.10;;;9.53;;
2854;SDS011;1435;49.472;10.940;2024-01-10T09:06:01;12.10;;;9.23;;
2854;SDS011;1435;49.472;10.940;2024-01-10T09:11:04;17.70;;;10.43;;
2854;SDS011;1435;49.472;10.940;2024-01-10T09:16:07;14.27;;;10.20;;
2854;SDS011;1435;49.472;10.940;2024-01-10T09:21:09;17.10;;;10.43;;
2854;SDS011;1435;49.472;10.940;2024-01-10T09:26:12;13.50;;;9.03;;
2854;SDS011;1435;49.472;10.940;2024-01-10T09:31:15;17.77;;;9.77;;
2854;SDS011;1435;49.472;10.940;2024-01-10T09:36:16;16.40;;;10.70;;
2854;SDS011;1435;49.472;10.940;2024-01-10T09:41:18;12.93;;;9.27;;
2854;SDS011;1435;49.472;10.940;2024-01-10T09:46:21;14.33;;;9.67;;
2854;SDS011;1435;49.472;10.940;2024-01-10T09:51:23;16.87;;;9.87;;
2854;SDS011;1435;49.472;10.940;2024-01-10T09:56:24;17.77;;;10.07;;
2854;SDS011;1435;49.472;10.940;2024-01-10T10:01:27;14.27;;;9.53;;
2854;SDS011;1435;49.472;10.940;2024-01-10T10:06:29;12.90;;;9.43;;
2854;SDS011;1435;49.472;10.940;2024-01-10T10:11:30;12.53;;;8.83;;
2854;SDS011;1435;49.472;10.940;2024-01-10T10:16:34;12.50;;;10.20;;
2854;SDS011;1435;49.472;10.940;2024-01-10T10:21:35;14.30;;;8.73;;
2854;SDS011;1435;49.472;10.940;2024-01-10T10:26:37;11.50;;;9.27;;
2854;SDS011;1435;49.472;10.940;2024-01-10T10:31:42;13.80;;;10.10;;
2854;SDS011;1435;49.472;10.940;2024-01-10T10:36:48;15.00;;;10.30;;
2854;SDS011;1435;49.472;10.940;2024-01-10T10:41:49;15.97;;;9.67;;
2854;SDS011;1435;49.472;10.940;2024-01-10T10:46:54;15.70;;;10.57;;
2854;SDS011;1435;49.472;10.940;2024-01-10T10:52:00;15.33;;;10.20;;
2854;SDS011;1435;49.472;10.940;2024-01-10T10:57:03;20.10;;;10.27;;
2854;SDS011;1435;49.472;10.940;2024-01-10T11:02:07;16.47;;;9.47;;
2854;SDS011;1435;49.472;10.940;2024-01-10T11:07:11;18.10;;;11.87;;
2854;SDS011;1435;49.472;10.940;2024-01-10T11:12:19;17.57;;;9.67;;
2854;SDS011;1435;49.472;10.940;2024-01-10T11:17:39;17.30;;;9.80;;
2854;SDS011;1435;49.472;10.940;2024-01-10T11:23:09;13.80;;;10.03;;
2854;SDS011;1435;49.472;10.940;2024-01-10T11:28:31;13.50;;;10.27;;
2854;SDS011;1435;49.472;10.940;2024-01-10T11:33:35;13.60;;;10.00;;
2854;SDS011;1435;49.472;10.940;2024-01-10T11:38:43;13.87;;;10.87;;
2854;SDS011;1435;49.472;10.940;2024-01-10T11:49:30;13.00;;;8.73;;
2854;SDS011;1435;49.472;10.940;2024-01-10T11:54:35;19.43;;;11.70;;
2854;SDS011;1435;49.472;10.940;2024-01-10T11:59:41;17.50;;;10.57;;
2854;SDS011;1435;49.472;10.940;2024-01-10T12:04:46;13.90;;;9.37;;
2854;SDS011;1435;49.472;10.940;2024-01-10T12:09:48;17.67;;;10.43;;
2854;SDS011;1435;49.472;10.940;2024-01-10T12:14:50;14.17;;;9.43;;
2854;SDS011;1435;49.472;10.940;2024-01-10T12:19:53;13.77;;;8.90;;
2854;SDS011;1435;49.472;10.940;2024-01-10T12:24:55;15.30;;;9.50;;
2854;SDS011;1435;49.472;10.940;2024-01-10T12:29:57;14.97;;;9.70;;
2854;SDS011;1435;49.472;10.940;2024-01-10T12:35:04;16.87;;;10.40;;
2854;SDS011;1435;49.472;10.940;2024-01-10T12:40:08;18.07;;;10.77;;
2854;SDS011;1435;49.472;10.940;2024-01-10T12:45:20;18.83;;;11.87;;
2854;SDS011;1435;49.472;10.940;2024-01-10T12:50:23;17.80;;;9.90;;
2854;SDS011;1435;49.472;10.940;2024-01-10T12:55:26;12.70;;;10.00;;
2854;SDS011;1435;49.472;10.940;2024-01-10T13:00:28;16.40;;;9.70;;
2854;SDS011;1435;49.472;10.940;2024-01-10T13:05:31;14.97;;;10.27;;
2854;SDS011;1435;49.472;10.940;2024-01-10T13:10:33;12.20;;;9.63;;
2854;SDS011;1435;49.472;10.940;2024-01-10T13:15:35;14.77;;;10.50;;
2854;SDS011;1435;49.472;10.940;2024-01-10T13:20:38;14.37;;;9.93;;
2854;SDS011;1435;49.472;10.940;2024-01-10T13:25:39;18.60;;;11.07;;
2854;SDS011;1435;49.472;10.940;2024-01-10T13:30:41;14.27;;;9.70;;
2854;SDS011;1435;49.472;10.940;2024-01-10T13:35:44;15.27;;;10.33;;
2854;SDS011;1435;49.472;10.940;2024-01-10T13:40:46;15.80;;;9.97;;
2854;SDS011;1435;49.472;10.940;2024-01-10T13:45:48;16.40;;;11.67;;
2854;SDS011;1435;49.472;10.940;2024-01-10T13:50:51;18.43;;;12.40;;
2854;SDS011;1435;49.472;10.940;2024-01-10T13:55:52;15.40;;;11.57;;
2854;SDS011;1435;49.472;10.940;2024-01-10T14:00:54;14.63;;;11.47;;
2854;SDS011;1435;49.472;10.940;2024-01-10T14:05:57;17.47;;;11.83;;
2854;SDS011;1435;49.472;10.940;2024-01-10T14:10:59;15.97;;;11.00;;
2854;SDS011;1435;49.472;10.940;2024-01-10T14:16:00;20.27;;;13.30;;
2854;SDS011;1435;49.472;10.940;2024-01-10T14:21:03;15.13;;;11.23;;
2854;SDS011;1435;49.472;10.940;2024-01-10T14:26:06;17.77;;;14.17;;
2854;SDS011;1435;49.472;10.940;2024-01-10T14:31:07;18.90;;;11.33;;
2854;SDS011;1435;49.472;10.940;2024-01-10T14:36:11;16.97;;;12.00;;
2854;SDS011;1435;49.472;10.940;2024-01-10T14:41:13;16.23;;;9.53;;
2854;SDS011;1435;49.472;10.940;2024-01-10T14:46:14;13.07;;;9.57;;
2854;SDS011;1435;49.472;10.940;2024-01-10T14:51:17;14.90;;;10.33;;
2854;SDS011;1435;49.472;10.940;2024-01-10T14:56:19;13.13;;;9.90;;
2854;SDS011;1435;49.472;10.940;2024-01-10T15:01:21;15.20;;;9.73;;
2854;SDS011;1435;49.472;10.940;2024-01-10T15:06:24;13.73;;;9.80;;
2854;SDS011;1435;49.472;10.940;2024-01-10T15:11:25;17.47;;;10.53;;
2854;SDS011;1435;49.472;10.940;2024-01-10T15:16:27;17.13;;;10.67;;
2854;SDS011;1435;49.472;10.940;2024-01-10T15:21:30;15.20;;;10.23;;
2854;SDS011;1435;49.472;10.940;2024-01-10T15:26:32;14.30;;;8.70;;
2854;SDS011;1435;49.472;10.940;2024-01-10T15:31:33;13.90;;;10.13;;
2854;SDS011;1435;49.472;10.940;2024-01-10T15:36:40;13.77;;;10.00;;
2854;SDS011;1435;49.472;10.940;2024-01-10T15:41:42;12.50;;;7.70;;
2854;SDS011;1435;49.472;10.940;2024-01-10T15:46:44;13.87;;;8.60;;
2854;SDS011;1435;49.472;10.940;2024-01-10T15:51:47;14.20;;;9.07;;
2854;SDS011;1435;49.472;10.940;2024-01-10T15:56:49;16.20;;;10.40;;
2854;SDS011;1435;49.472;10.940;2024-01-10T16:01:51;11.27;;;9.07;;
2854;SDS011;1435;49.472;10.940;2024-01-10T16:06:55;15.40;;;8.70;;
2854;SDS011;1435;49.472;10.940;2024-01-10T16:11:57;14.60;;;9.40;;
2854;SDS011;1435;49.472;10.940;2024-01-10T16:16:58;10.60;;;8.00;;
2854;SDS011;1435;49.472;10.940;2024-01-10T16:22:01;17.70;;;9.63;;
2854;SDS011;1435;49.472;10.940;2024-01-10T16:27:03;11.77;;;8.70;;
2854;SDS011;1435;49.472;10.940;2024-01-10T16:32:05;12.80;;;9.60;;
2854;SDS011;1435;49.472;10.940;2024-01-10T16:37:08;14.40;;;7.80;;
2854;SDS011;1435;49.472;10.940;2024-01-10T16:42:11;15.63;;;9.43;;
2854;SDS011;1435;49.472;10.940;2024-01-10T16:47:14;14.03;;;8.77;;
2854;SDS011;1435;49.472;10.940;2024-01-10T16:52:17;11.60;;;8.80;;
2854;SDS011;1435;49.472;10.940;2024-01-10T16:57:20;12.53;;;8.20;;
2854;SDS011;1435;49.472;10.940;2024-01-10T17:02:22;14.00;;;8.67;;
2854;SDS011;1435;49.472;10.940;2024-01-10T17:07:25;10.87;;;8.03;;
2854;SDS011;1435;49.472;10.940;2024-01-10T17:12:27;10.03;;;7.97;;
2854;SDS011;1435;49.472;10.940;2024-01-10T17:17:28;11.43;;;8.80;;
2854;SDS011;1435;49.472;10.940;2024-01-10T17:22:31;12.00;;;9.27;;
2854;SDS011;1435;49.472;10.940;2024-01-10T17:27:35;13.23;;;9.90;;
2854;SDS011;1435;49.472;10.940;2024-01-10T17:32:37;13.17;;;10.03;;
2854;SDS011;1435;49.472;10.940;2024-01-10T17:37:40;22.73;;;10.60;;
2854;SDS011;1435;49.472;10.940;2024-01-10T17:42:42;16.90;;;9.20;;
2854;SDS011;1435;49.472;10.940;2024-01-10T17:47:44;13.77;;;10.50;;
2854;SDS011;1435;49.472;10.940;2024-01-10T17:52:47;11.77;;;8.87;;
2854;SDS011;1435;49.472;10.940;2024-01-10T17:57:48;14.27;;;11.77;;
2854;SDS011;1435;49.472;10.940;2024-01-10T18:02:50;15.97;;;9.80;;
2854;SDS011;1435;49.472;10.940;2024-01-10T18:07:53;20.90;;;11.30;;
2854;SDS011;1435;49.472;10.940;2024-01-10T18:12:54;17.03;;;10.40;;
2854;SDS011;1435;49.472;10.940;2024-01-10T18:17:57;21.17;;;11.30;;
2854;SDS011;1435;49.472;10.940;2024-01-10T18:23:00;17.40;;;12.27;;
2854;SDS011;1435;49.472;10.940;2024-01-10T18:28:02;18.57;;;10.07;;
2854;SDS011;1435;49.472;10.940;2024-01-10T18:33:04;16.50;;;10.40;;
2854;SDS011;1435;49.472;10.940;2024-01-10T18:38:07;15.97;;;11.07;;
2854;SDS011;1435;49.472;10.940;2024-01-10T18:43:09;14.50;;;10.70;;
2854;SDS011;1435;49.472;10.940;2024-01-10T18:48:11;11.50;;;10.10;;
2854;SDS011;1435;49.472;10.940;2024-01-10T18:53:14;15.70;;;12.20;;
2854;SDS011;1435;49.472;10.940;2024-01-10T18:58:16;18.17;;;11.23;;
2854;SDS011;1435;49.472;10.940;2024-01-10T19:03:17;17.53;;;10.70;;
2854;SDS011;1435;49.472;10.940;2024-01-10T19:08:20;22.23;;;15.73;;
2854;SDS011;1435;49.472;10.940;2024-01-10T19:13:22;21.10;;;12.73;;
2854;SDS011;1435;49.472;10.940;2024-01-10T19:18:23;12.70;;;10.40;;
2854;SDS011;1435;49.472;10.940;2024-01-10T19:23:26;17.70;;;10.53;;
2854;SDS011;1435;49.472;10.940;2024-01-10T19:28:28;20.10;;;12.13;;
2854;SDS011;1435;49.472;10.940;2024-01-10T19:33:30;14.43;;;12.07;;
2854;SDS011;1435;49.472;10.940;2024-01-10T19:38:33;16.73;;;11.37;;
2854;SDS011;1435;49.472;10.940;2024-01-10T19:43:34;16.70;;;12.00;;
2854;SDS011;1435;49.472;10.940;2024-01-10T19:48:36;20.10;;;11.47;;
2854;SDS011;1435;49.472;10.940;2024-01-10T19:53:39;18.67;;;12.10;;
2854;SDS011;1435;49.472;10.940;2024-01-10T19:58:47;16.03;;;11.90;;
2854;SDS011;1435;49.472;10.940;2024-01-10T20:03:49;15.07;;;12.00;;
2854;SDS011;1435;49.472;10.940;2024-01-10T20:08:52;22.03;;;10.97;;
2854;SDS011;1435;49.472;10.940;2024-01-10T20:13:54;16.90;;;12.10;;
2854;SDS011;1435;49.472;10.940;2024-01-10T20:18:55;16.60;;;12.30;;
2854;SDS011;1435;49.472;10.940;2024-01-10T20:24:00;18.93;;;14.73;;
2854;SDS011;1435;49.472;10.940;2024-01-10T20:29:01;24.77;;;14.90;;
2854;SDS011;1435;49.472;10.940;2024-01-10T20:34:03;21.40;;;12.90;;
2854;SDS011;1435;49.472;10.940;2024-01-10T20:39:06;21.73;;;14.73;;
2854;SDS011;1435;49.472;10.940;2024-01-10T20:44:07;30.10;;;15.17;;
2854;SDS011;1435;49.472;10.940;2024-01-10T20:49:09;19.20;;;14.63;;
2854;SDS011;1435;49.472;10.940;2024-01-10T20:54:12;21.77;;;14.90;;
2854;SDS011;1435;49.472;10.940;2024-01-10T20:59:14;24.67;;;13.97;;
2854;SDS011;1435;49.472;10.940;2024-01-10T21:04:15;22.33;;;14.53;;
2854;SDS011;1435;49.472;10.940;2024-01-10T21:09:18;26.33;;;14.10;;
2854;SDS011;1435;49.472;10.940;2024-01-10T21:14:20;23.97;;;15.23;;
2854;SDS011;1435;49.472;10.940;2024-01-10T21:19:21;18.33;;;14.00;;
2854;SDS011;1435;49.472;10.940;2024-01-10T21:24:27;20.70;;;12.70;;
2854;SDS011;1435;49.472;10.940;2024-01-10T21:29:28;19.93;;;14.57;;
2854;SDS011;1435;49.472;10.940;2024-01-10T21:34:30;20.47;;;12.83;;
2854;SDS011;1435;49.472;10.940;2024-01-10T21:39:33;17.63;;;13.27;;
2854;SDS011;1435;49.472;10.940;2024-01-10T21:44:34;25.07;;;14.90;;
2854;SDS011;1435;49.472;10.940;2024-01-10T21:49:37;27.80;;;14.40;;
2854;SDS011;1435;49.472;10.940;2024-01-10T21:54:40;28.77;;;15.73;;
2854;SDS011;1435;49.472;10.940;2024-01-10T21:59:42;29.83;;;15.67;;
2854;SDS011;1435;49.472;10.940;2024-01-10T22:04:44;24.37;;;15.67;;
2854;SDS011;1435;49.472;10.940;2024-01-10T22:09:47;22.97;;;13.57;;
2854;SDS011;1435;49.472;10.940;2024-01-10T22:14:48;25.97;;;16.40;;
2854;SDS011;1435;49.472;10.940;2024-01-10T22:19:50;27.10;;;15.03;;
2854;SDS011;1435;49.472;10.940;2024-01-10T22:24:53;22.30;;;15.50;;
2854;SDS011;1435;49.472;10.940;2024-01-10T22:29:55;27.97;;;15.70;;
2854;SDS011;1435;49.472;10.940;2024-01-10T22:34:57;17.90;;;13.83;;
2854;SDS011;1435;49.472;10.940;2024-01-10T22:40:00;16.87;;;13.00;;
2854;SDS011;1435;49.472;10.940;2024-01-10T22:45:01;22.33;;;13.10;;
2854;SDS011;1435;49.472;10.940;2024-01-10T22:50:04;26.90;;;14.87;;
2854;SDS011;1435;49.472;10.940;2024-01-10T22:55:08;27.97;;;15.20;;
2854;SDS011;1435;49.472;10.940;2024-01-10T23:00:10;27.27;;;13.67;;
2854;SDS011;1435;49.472;10.940;2024-01-10T23:05:14;24.50;;;16.33;;
2854;SDS011;1435;49.472;10.940;2024-01-10T23:10:17;28.47;;;16.40;;
2854;SDS011;1435;49.472;10.940;2024-01-10T23:15:19;17.47;;;13.10;;
2854;SDS011;1435;49.472;10.940;2024-01-10T23:20:23;20.67;;;13.37;;
2854;SDS011;1435;49.472;10.940;2024-01-10T23:25:26;21.83;;;14.80;;
2854;SDS011;1435;49.472;10.940;2024-01-10T23:30:27;23.20;;;15.23;;
2854;SDS011;1435;49.472;10.940;2024-01-10T23:35:30;18.70;;;14.00;;
2854;SDS011;1435;49.472;10.940;2024-01-10T23:40:33;26.63;;;15.13;;
2854;SDS011;1435;49.472;10.940;2024-01-10T23:45:34;20.07;;;13.57;;
2854;SDS011;1435;49.472;10.940;2024-01-10T23:50:36;23.57;;;14.30;;
2854;SDS011;1435;49.472;10.940;2024-01-10T23:55:40;23.77;;;13.87;;
